sensor_id;sensor_type;location;lat;lon;timestamp;pressure;altitude;pressure_sealevel;temperature;humidity
63339;BME280;70568;51.378;-1.342;2023-08-06T00:00:03;99979.58;;;9.41;42.38
63339;BME280;70568;51.378;-1.342;2023-08-06T00:02:30;99986.19;;;9.02;43.12
63339;BME280;70568;51.378;-1.342;2023-08-06T00:04:58;99995.18;;;7.03;45.58
63339;BME280;70568;51.378;-1.342;2023-08-06T00:07:24;99995.77;;;9.08;43.07
63339;BME280;70568;51.378;-1.342;2023-08-06T00:09:50;99997.42;;;8.74;42.91
63339;BME280;70568;51.378;-1.342;2023-08-06T00:12:17;100005.63;;;6.68;44.86
63339;BME280;70568;51.378;-1.342;2023-08-06T00:14:44;100004.70;;;9.83;43.09
63339;BME280;70568;51.378;-1.342;2023-08-06T00:17:11;100005.62;;;8.96;43.72
63339;BME280;70568;51.378;-1.342;2023-08-06T00:19:37;100010.10;;;7.86;43.93
63339;BME280;70568;51.378;-1.342;2023-08-06T00:22:04;100010.57;;;9.07;42.80
63339;BME280;70568;51.378;-1.342;2023-08-06T00:24:31;100011.88;;;8.96;42.61
63339;BME280;70568;51.378;-1.342;2023-08-06T00:26:57;100019.95;;;7.93;43.23
63339;BME280;70568;51.378;-1.342;2023-08-06T00:29:24;100020.37;;;8.55;43.31
63339;BME280;70568;51.378;-1.342;2023-08-06T00:31:50;100020.20;;;8.69;42.10
63339;BME280;70568;51.378;-1.342;2023-08-06T00:34:17;100025.97;;;8.98;41.54
63339;BME280;70568;51.378;-1.342;2023-08-06T00:36:43;100032.77;;;8.54;41.69
63339;BME280;70568;51.378;-1.342;2023-08-06T00:39:10;100037.14;;;8.96;42.14
63339;BME280;70568;51.378;-1.342;2023-08-06T00:41:36;100043.04;;;8.45;42.90
63339;BME280;70568;51.378;-1.342;2023-08-06T00:44:03;100045.43;;;8.27;44.13
63339;BME280;70568;51.378;-1.342;2023-08-06T00:46:31;100048.26;;;7.54;43.83
63339;BME280;70568;51.378;-1.342;2023-08-06T00:48:58;100053.54;;;9.14;42.65
63339;BME280;70568;51.378;-1.342;2023-08-06T00:51:26;100059.17;;;8.92;42.67
63339;BME280;70568;51.378;-1.342;2023-08-06T00:53:53;100057.27;;;8.94;42.52
63339;BME280;70568;51.378;-1.342;2023-08-06T00:56:21;100061.64;;;9.44;42.05
63339;BME280;70568;51.378;-1.342;2023-08-06T00:58:49;100062.05;;;9.13;42.14
63339;BME280;70568;51.378;-1.342;2023-08-06T01:01:15;100062.98;;;8.70;43.34
63339;BME280;70568;51.378;-1.342;2023-08-06T01:03:41;100070.68;;;7.16;45.26
63339;BME280;70568;51.378;-1.342;2023-08-06T01:06:09;100071.58;;;6.96;44.99
63339;BME280;70568;51.378;-1.342;2023-08-06T01:08:51;100073.76;;;8.80;45.18
63339;BME280;70568;51.378;-1.342;2023-08-06T01:11:26;100072.30;;;8.21;44.31
63339;BME280;70568;51.378;-1.342;2023-08-06T01:14:01;100071.75;;;6.81;47.04
63339;BME280;70568;51.378;-1.342;2023-08-06T01:16:30;100071.39;;;8.14;45.35
63339;BME280;70568;51.378;-1.342;2023-08-06T01:18:58;100072.40;;;8.90;45.01
63339;BME280;70568;51.378;-1.342;2023-08-06T01:21:24;100073.00;;;7.65;44.44
63339;BME280;70568;51.378;-1.342;2023-08-06T01:23:51;100073.20;;;6.01;47.16
63339;BME280;70568;51.378;-1.342;2023-08-06T01:26:23;100077.66;;;7.63;44.56
63339;BME280;70568;51.378;-1.342;2023-08-06T01:28:54;100080.96;;;7.99;46.28
63339;BME280;70568;51.378;-1.342;2023-08-06T01:31:26;100086.32;;;7.00;46.17
63339;BME280;70568;51.378;-1.342;2023-08-06T01:33:56;100086.64;;;7.74;45.14
63339;BME280;70568;51.378;-1.342;2023-08-06T01:36:24;100091.17;;;7.53;44.04
63339;BME280;70568;51.378;-1.342;2023-08-06T01:38:53;100091.30;;;7.65;43.85
63339;BME280;70568;51.378;-1.342;2023-08-06T01:41:21;100089.80;;;7.14;46.25
63339;BME280;70568;51.378;-1.342;2023-08-06T01:43:48;100098.20;;;6.88;45.36
63339;BME280;70568;51.378;-1.342;2023-08-06T01:46:14;100102.89;;;6.46;45.27
63339;BME280;70568;51.378;-1.342;2023-08-06T01:48:41;100101.38;;;7.75;44.69
63339;BME280;70568;51.378;-1.342;2023-08-06T01:51:08;100099.58;;;6.02;46.07
63339;BME280;70568;51.378;-1.342;2023-08-06T01:53:34;100106.11;;;8.18;45.60
63339;BME280;70568;51.378;-1.342;2023-08-06T01:56:01;100108.60;;;7.56;46.91
63339;BME280;70568;51.378;-1.342;2023-08-06T01:58:28;100109.73;;;7.18;46.65
63339;BME280;70568;51.378;-1.342;2023-08-06T02:00:55;100112.08;;;5.62;48.65
63339;BME280;70568;51.378;-1.342;2023-08-06T02:03:22;100111.39;;;5.58;50.39
63339;BME280;70568;51.378;-1.342;2023-08-06T02:05:48;100110.79;;;5.56;49.52
63339;BME280;70568;51.378;-1.342;2023-08-06T02:08:15;100115.36;;;6.48;48.79
63339;BME280;70568;51.378;-1.342;2023-08-06T02:10:41;100119.16;;;5.76;48.27
63339;BME280;70568;51.378;-1.342;2023-08-06T02:13:07;100120.28;;;6.84;48.87
63339;BME280;70568;51.378;-1.342;2023-08-06T02:15:34;100121.76;;;5.76;48.95
63339;BME280;70568;51.378;-1.342;2023-08-06T02:18:00;100122.66;;;7.03;48.35
63339;BME280;70568;51.378;-1.342;2023-08-06T02:20:27;100123.15;;;6.39;46.54
63339;BME280;70568;51.378;-1.342;2023-08-06T02:22:53;100127.66;;;6.42;48.63
63339;BME280;70568;51.378;-1.342;2023-08-06T02:25:21;100127.74;;;6.28;47.28
63339;BME280;70568;51.378;-1.342;2023-08-06T02:27:47;100124.24;;;7.05;45.20
63339;BME280;70568;51.378;-1.342;2023-08-06T02:30:14;100123.33;;;7.99;44.96
63339;BME280;70568;51.378;-1.342;2023-08-06T02:32:40;100126.31;;;8.02;44.88
63339;BME280;70568;51.378;-1.342;2023-08-06T02:35:07;100126.66;;;6.43;45.41
63339;BME280;70568;51.378;-1.342;2023-08-06T02:37:34;100126.78;;;8.03;44.59
63339;BME280;70568;51.378;-1.342;2023-08-06T02:40:01;100130.40;;;6.61;44.56
63339;BME280;70568;51.378;-1.342;2023-08-06T02:42:27;100131.54;;;7.95;44.01
63339;BME280;70568;51.378;-1.342;2023-08-06T02:44:54;100134.73;;;8.23;43.69
63339;BME280;70568;51.378;-1.342;2023-08-06T02:47:21;100132.93;;;8.35;44.09
63339;BME280;70568;51.378;-1.342;2023-08-06T02:49:48;100132.68;;;6.74;44.50
63339;BME280;70568;51.378;-1.342;2023-08-06T02:52:14;100136.28;;;7.49;45.39
63339;BME280;70568;51.378;-1.342;2023-08-06T02:54:41;100138.51;;;6.41;45.72
63339;BME280;70568;51.378;-1.342;2023-08-06T02:57:07;100138.19;;;6.70;47.13
63339;BME280;70568;51.378;-1.342;2023-08-06T02:59:34;100138.59;;;6.41;46.21
63339;BME280;70568;51.378;-1.342;2023-08-06T03:02:00;100138.57;;;7.26;46.57
63339;BME280;70568;51.378;-1.342;2023-08-06T03:04:27;100140.67;;;6.49;46.01
63339;BME280;70568;51.378;-1.342;2023-08-06T03:06:53;100141.76;;;6.53;45.23
63339;BME280;70568;51.378;-1.342;2023-08-06T03:09:21;100148.84;;;7.22;45.80
63339;BME280;70568;51.378;-1.342;2023-08-06T03:11:47;100147.69;;;6.86;44.82
63339;BME280;70568;51.378;-1.342;2023-08-06T03:14:14;100154.76;;;6.24;46.40
63339;BME280;70568;51.378;-1.342;2023-08-06T03:16:40;100155.79;;;6.57;45.86
63339;BME280;70568;51.378;-1.342;2023-08-06T03:19:06;100156.16;;;6.35;46.06
63339;BME280;70568;51.378;-1.342;2023-08-06T03:21:33;100156.25;;;6.08;46.63
63339;BME280;70568;51.378;-1.342;2023-08-06T03:23:59;100152.45;;;7.01;45.88
63339;BME280;70568;51.378;-1.342;2023-08-06T03:26:26;100147.42;;;7.49;45.99
63339;BME280;70568;51.378;-1.342;2023-08-06T03:28:54;100148.78;;;5.35;47.37
63339;BME280;70568;51.378;-1.342;2023-08-06T03:31:21;100152.50;;;5.67;47.61
63339;BME280;70568;51.378;-1.342;2023-08-06T03:33:48;100156.83;;;6.47;48.67
63339;BME280;70568;51.378;-1.342;2023-08-06T03:36:14;100159.65;;;5.65;49.80
63339;BME280;70568;51.378;-1.342;2023-08-06T03:38:41;100158.80;;;6.18;48.45
63339;BME280;70568;51.378;-1.342;2023-08-06T03:41:08;100161.49;;;5.90;48.90
63339;BME280;70568;51.378;-1.342;2023-08-06T03:43:34;100165.10;;;5.69;49.73
63339;BME280;70568;51.378;-1.342;2023-08-06T03:46:00;100164.49;;;5.89;49.53
63339;BME280;70568;51.378;-1.342;2023-08-06T03:48:27;100163.76;;;5.02;50.00
63339;BME280;70568;51.378;-1.342;2023-08-06T03:50:53;100161.43;;;6.82;49.62
63339;BME280;70568;51.378;-1.342;2023-08-06T03:53:21;100162.56;;;6.09;48.61
63339;BME280;70568;51.378;-1.342;2023-08-06T03:55:47;100161.81;;;7.14;48.43
63339;BME280;70568;51.378;-1.342;2023-08-06T03:58:14;100164.18;;;5.98;48.69
63339;BME280;70568;51.378;-1.342;2023-08-06T04:00:40;100161.63;;;5.67;48.51
63339;BME280;70568;51.378;-1.342;2023-08-06T04:03:07;100159.43;;;5.50;47.36
63339;BME280;70568;51.378;-1.342;2023-08-06T04:05:34;100159.37;;;6.05;47.35
63339;BME280;70568;51.378;-1.342;2023-08-06T04:08:00;100163.40;;;6.61;48.23
63339;BME280;70568;51.378;-1.342;2023-08-06T04:10:27;100162.19;;;5.48;48.38
63339;BME280;70568;51.378;-1.342;2023-08-06T04:12:53;100168.39;;;5.02;49.76
63339;BME280;70568;51.378;-1.342;2023-08-06T04:15:20;100166.15;;;6.07;48.51
63339;BME280;70568;51.378;-1.342;2023-08-06T04:17:47;100162.79;;;4.74;48.33
63339;BME280;70568;51.378;-1.342;2023-08-06T04:20:14;100168.09;;;6.95;47.70
63339;BME280;70568;51.378;-1.342;2023-08-06T04:22:40;100168.17;;;7.40;46.99
63339;BME280;70568;51.378;-1.342;2023-08-06T04:25:07;100173.08;;;6.56;48.93
63339;BME280;70568;51.378;-1.342;2023-08-06T04:27:34;100179.08;;;5.36;50.76
63339;BME280;70568;51.378;-1.342;2023-08-06T04:30:01;100177.52;;;4.67;50.53
63339;BME280;70568;51.378;-1.342;2023-08-06T04:32:27;100182.38;;;5.37;51.70
63339;BME280;70568;51.378;-1.342;2023-08-06T04:34:55;100181.44;;;5.64;51.54
63339;BME280;70568;51.378;-1.342;2023-08-06T04:37:22;100182.97;;;4.79;52.87
63339;BME280;70568;51.378;-1.342;2023-08-06T04:39:49;100176.09;;;6.43;51.58
63339;BME280;70568;51.378;-1.342;2023-08-06T04:42:15;100182.47;;;5.00;51.08
63339;BME280;70568;51.378;-1.342;2023-08-06T04:44:42;100182.26;;;6.09;50.50
63339;BME280;70568;51.378;-1.342;2023-08-06T04:47:09;100184.91;;;6.34;49.30
63339;BME280;70568;51.378;-1.342;2023-08-06T04:49:36;100185.25;;;4.98;48.29
63339;BME280;70568;51.378;-1.342;2023-08-06T04:52:03;100188.80;;;5.91;48.39
63339;BME280;70568;51.378;-1.342;2023-08-06T04:54:30;100186.85;;;6.02;48.11
63339;BME280;70568;51.378;-1.342;2023-08-06T04:56:57;100189.89;;;6.36;49.03
63339;BME280;70568;51.378;-1.342;2023-08-06T04:59:24;100190.65;;;5.33;49.09
63339;BME280;70568;51.378;-1.342;2023-08-06T05:01:51;100191.50;;;6.61;49.36
63339;BME280;70568;51.378;-1.342;2023-08-06T05:04:17;100198.55;;;4.93;51.29
63339;BME280;70568;51.378;-1.342;2023-08-06T05:06:44;100201.53;;;6.35;50.68
63339;BME280;70568;51.378;-1.342;2023-08-06T05:09:11;100200.32;;;4.92;50.36
63339;BME280;70568;51.378;-1.342;2023-08-06T05:11:37;100200.12;;;5.54;48.74
63339;BME280;70568;51.378;-1.342;2023-08-06T05:14:04;100204.35;;;5.83;49.87
63339;BME280;70568;51.378;-1.342;2023-08-06T05:16:30;100206.75;;;6.82;49.11
63339;BME280;70568;51.378;-1.342;2023-08-06T05:18:57;100207.04;;;5.50;50.11
63339;BME280;70568;51.378;-1.342;2023-08-06T05:21:24;100208.63;;;6.65;48.70
63339;BME280;70568;51.378;-1.342;2023-08-06T05:23:51;100206.46;;;5.65;47.02
63339;BME280;70568;51.378;-1.342;2023-08-06T05:26:19;100211.35;;;7.06;46.94
63339;BME280;70568;51.378;-1.342;2023-08-06T05:28:45;100203.68;;;7.13;46.51
63339;BME280;70568;51.378;-1.342;2023-08-06T05:31:12;100202.68;;;5.98;47.77
63339;BME280;70568;51.378;-1.342;2023-08-06T05:33:39;100210.10;;;6.34;50.01
63339;BME280;70568;51.378;-1.342;2023-08-06T05:36:06;100209.33;;;5.26;51.07
63339;BME280;70568;51.378;-1.342;2023-08-06T05:38:32;100212.03;;;5.80;51.06
63339;BME280;70568;51.378;-1.342;2023-08-06T05:40:58;100210.41;;;5.46;49.98
63339;BME280;70568;51.378;-1.342;2023-08-06T05:43:25;100216.12;;;5.92;50.66
63339;BME280;70568;51.378;-1.342;2023-08-06T05:45:51;100219.35;;;5.70;50.15
63339;BME280;70568;51.378;-1.342;2023-08-06T05:48:19;100219.26;;;5.59;49.66
63339;BME280;70568;51.378;-1.342;2023-08-06T05:50:46;100223.81;;;6.03;49.67
63339;BME280;70568;51.378;-1.342;2023-08-06T05:53:12;100232.10;;;4.86;50.52
63339;BME280;70568;51.378;-1.342;2023-08-06T05:55:39;100234.51;;;5.84;51.14
63339;BME280;70568;51.378;-1.342;2023-08-06T05:58:06;100244.49;;;5.78;50.80
63339;BME280;70568;51.378;-1.342;2023-08-06T06:00:33;100248.46;;;5.46;51.27
63339;BME280;70568;51.378;-1.342;2023-08-06T06:02:59;100256.58;;;4.21;50.86
63339;BME280;70568;51.378;-1.342;2023-08-06T06:05:26;100256.50;;;5.87;49.37
63339;BME280;70568;51.378;-1.342;2023-08-06T06:07:52;100254.59;;;5.60;49.69
63339;BME280;70568;51.378;-1.342;2023-08-06T06:10:19;100258.54;;;5.85;49.49
63339;BME280;70568;51.378;-1.342;2023-08-06T06:12:46;100260.20;;;6.98;49.25
63339;BME280;70568;51.378;-1.342;2023-08-06T06:15:13;100257.81;;;7.02;47.80
63339;BME280;70568;51.378;-1.342;2023-08-06T06:17:39;100261.65;;;4.82;50.09
63339;BME280;70568;51.378;-1.342;2023-08-06T06:20:07;100268.15;;;5.58;50.66
63339;BME280;70568;51.378;-1.342;2023-08-06T06:22:34;100269.49;;;5.71;49.65
63339;BME280;70568;51.378;-1.342;2023-08-06T06:25:00;100272.08;;;6.68;47.95
63339;BME280;70568;51.378;-1.342;2023-08-06T06:27:27;100274.51;;;6.60;47.68
63339;BME280;70568;51.378;-1.342;2023-08-06T06:29:54;100275.75;;;6.19;47.10
63339;BME280;70568;51.378;-1.342;2023-08-06T06:32:22;100275.86;;;6.27;47.22
63339;BME280;70568;51.378;-1.342;2023-08-06T06:34:51;100279.19;;;7.33;47.47
63339;BME280;70568;51.378;-1.342;2023-08-06T06:37:18;100282.48;;;6.36;48.20
63339;BME280;70568;51.378;-1.342;2023-08-06T06:39:45;100289.12;;;7.59;47.50
63339;BME280;70568;51.378;-1.342;2023-08-06T06:42:11;100290.63;;;8.34;47.02
63339;BME280;70568;51.378;-1.342;2023-08-06T06:44:38;100297.29;;;6.61;47.57
63339;BME280;70568;51.378;-1.342;2023-08-06T06:47:05;100302.16;;;6.08;48.37
63339;BME280;70568;51.378;-1.342;2023-08-06T06:49:32;100301.14;;;6.38;48.78
63339;BME280;70568;51.378;-1.342;2023-08-06T06:51:58;100302.70;;;6.98;48.90
63339;BME280;70568;51.378;-1.342;2023-08-06T06:54:25;100299.56;;;6.69;46.15
63339;BME280;70568;51.378;-1.342;2023-08-06T06:56:51;100303.56;;;7.07;46.78
63339;BME280;70568;51.378;-1.342;2023-08-06T06:59:18;100310.83;;;7.10;45.79
63339;BME280;70568;51.378;-1.342;2023-08-06T07:01:45;100312.01;;;7.09;47.66
63339;BME280;70568;51.378;-1.342;2023-08-06T07:04:11;100311.17;;;6.96;46.43
63339;BME280;70568;51.378;-1.342;2023-08-06T07:06:38;100312.97;;;6.43;47.83
63339;BME280;70568;51.378;-1.342;2023-08-06T07:09:04;100309.66;;;6.27;47.62
63339;BME280;70568;51.378;-1.342;2023-08-06T07:11:31;100310.36;;;8.10;46.87
63339;BME280;70568;51.378;-1.342;2023-08-06T07:13:58;100312.86;;;6.04;46.83
63339;BME280;70568;51.378;-1.342;2023-08-06T07:16:25;100319.75;;;6.41;48.63
63339;BME280;70568;51.378;-1.342;2023-08-06T07:18:53;100319.52;;;7.50;47.40
63339;BME280;70568;51.378;-1.342;2023-08-06T07:21:21;100315.75;;;6.77;47.70
63339;BME280;70568;51.378;-1.342;2023-08-06T07:23:48;100324.70;;;7.85;47.77
63339;BME280;70568;51.378;-1.342;2023-08-06T07:26:16;100321.19;;;6.57;47.05
63339;BME280;70568;51.378;-1.342;2023-08-06T07:28:42;100323.71;;;7.94;47.19
63339;BME280;70568;51.378;-1.342;2023-08-06T07:31:09;100320.90;;;7.44;47.20
63339;BME280;70568;51.378;-1.342;2023-08-06T07:33:35;100328.02;;;6.32;49.10
63339;BME280;70568;51.378;-1.342;2023-08-06T07:36:08;100333.33;;;7.40;49.43
63339;BME280;70568;51.378;-1.342;2023-08-06T07:38:36;100347.43;;;4.81;51.12
63339;BME280;70568;51.378;-1.342;2023-08-06T07:41:03;100340.29;;;6.92;49.11
63339;BME280;70568;51.378;-1.342;2023-08-06T07:43:30;100342.82;;;6.91;46.74
63339;BME280;70568;51.378;-1.342;2023-08-06T07:45:58;100341.61;;;7.78;45.91
63339;BME280;70568;51.378;-1.342;2023-08-06T07:48:24;100342.03;;;6.91;45.01
63339;BME280;70568;51.378;-1.342;2023-08-06T07:50:52;100339.49;;;7.80;44.59
63339;BME280;70568;51.378;-1.342;2023-08-06T07:53:20;100336.24;;;8.21;42.98
63339;BME280;70568;51.378;-1.342;2023-08-06T07:55:50;100336.14;;;8.83;44.19
63339;BME280;70568;51.378;-1.342;2023-08-06T07:58:16;100339.23;;;7.78;45.14
63339;BME280;70568;51.378;-1.342;2023-08-06T08:00:43;100340.97;;;8.83;45.94
63339;BME280;70568;51.378;-1.342;2023-08-06T08:03:10;100337.03;;;7.99;44.50
63339;BME280;70568;51.378;-1.342;2023-08-06T08:05:37;100338.44;;;8.29;43.59
63339;BME280;70568;51.378;-1.342;2023-08-06T08:08:04;100339.59;;;9.04;42.51
63339;BME280;70568;51.378;-1.342;2023-08-06T08:10:32;100345.52;;;8.20;41.81
63339;BME280;70568;51.378;-1.342;2023-08-06T08:12:58;100339.34;;;8.47;42.86
63339;BME280;70568;51.378;-1.342;2023-08-06T08:15:25;100343.35;;;7.39;43.38
63339;BME280;70568;51.378;-1.342;2023-08-06T08:17:52;100340.41;;;8.91;41.18
63339;BME280;70568;51.378;-1.342;2023-08-06T08:20:21;100335.95;;;11.45;38.96
63339;BME280;70568;51.378;-1.342;2023-08-06T08:22:47;100338.40;;;9.99;41.31
63339;BME280;70568;51.378;-1.342;2023-08-06T08:25:15;100341.23;;;9.48;40.32
63339;BME280;70568;51.378;-1.342;2023-08-06T08:27:43;100341.47;;;9.45;39.49
63339;BME280;70568;51.378;-1.342;2023-08-06T08:30:10;100338.42;;;9.59;40.02
63339;BME280;70568;51.378;-1.342;2023-08-06T08:32:36;100338.91;;;10.08;40.21
63339;BME280;70568;51.378;-1.342;2023-08-06T08:35:03;100341.34;;;8.64;43.29
63339;BME280;70568;51.378;-1.342;2023-08-06T08:37:30;100342.93;;;9.20;43.70
63339;BME280;70568;51.378;-1.342;2023-08-06T08:39:57;100345.26;;;7.65;44.49
63339;BME280;70568;51.378;-1.342;2023-08-06T08:42:23;100346.60;;;8.43;46.07
63339;BME280;70568;51.378;-1.342;2023-08-06T08:44:51;100341.98;;;7.59;44.08
63339;BME280;70568;51.378;-1.342;2023-08-06T08:47:19;100345.38;;;7.71;45.54
63339;BME280;70568;51.378;-1.342;2023-08-06T08:49:47;100350.56;;;7.44;44.35
63339;BME280;70568;51.378;-1.342;2023-08-06T08:52:16;100351.28;;;8.13;43.73
63339;BME280;70568;51.378;-1.342;2023-08-06T08:54:44;100351.69;;;8.48;42.04
63339;BME280;70568;51.378;-1.342;2023-08-06T08:57:12;100353.73;;;9.41;41.04
63339;BME280;70568;51.378;-1.342;2023-08-06T08:59:38;100349.00;;;8.87;39.83
63339;BME280;70568;51.378;-1.342;2023-08-06T09:02:05;100355.80;;;9.91;39.90
63339;BME280;70568;51.378;-1.342;2023-08-06T09:04:34;100355.82;;;10.07;40.41
63339;BME280;70568;51.378;-1.342;2023-08-06T09:07:02;100360.15;;;8.62;42.14
63339;BME280;70568;51.378;-1.342;2023-08-06T09:09:31;100361.50;;;9.12;43.42
63339;BME280;70568;51.378;-1.342;2023-08-06T09:12:01;100364.84;;;8.05;44.02
63339;BME280;70568;51.378;-1.342;2023-08-06T09:14:29;100360.99;;;8.80;42.62
63339;BME280;70568;51.378;-1.342;2023-08-06T09:16:56;100363.12;;;7.82;41.75
63339;BME280;70568;51.378;-1.342;2023-08-06T09:19:24;100357.19;;;9.42;39.21
63339;BME280;70568;51.378;-1.342;2023-08-06T09:21:51;100361.07;;;10.28;39.30
63339;BME280;70568;51.378;-1.342;2023-08-06T09:24:18;100357.14;;;9.07;41.24
63339;BME280;70568;51.378;-1.342;2023-08-06T09:26:45;100357.70;;;8.90;40.66
63339;BME280;70568;51.378;-1.342;2023-08-06T09:29:11;100357.10;;;8.95;41.23
63339;BME280;70568;51.378;-1.342;2023-08-06T09:31:41;100356.49;;;9.47;41.28
63339;BME280;70568;51.378;-1.342;2023-08-06T09:34:11;100360.97;;;9.74;39.76
63339;BME280;70568;51.378;-1.342;2023-08-06T09:36:40;100355.92;;;10.50;38.30
63339;BME280;70568;51.378;-1.342;2023-08-06T09:39:13;100357.11;;;11.80;37.11
63339;BME280;70568;51.378;-1.342;2023-08-06T09:41:40;100360.28;;;9.67;39.50
63339;BME280;70568;51.378;-1.342;2023-08-06T09:44:15;100363.00;;;10.54;36.71
63339;BME280;70568;51.378;-1.342;2023-08-06T09:46:42;100368.57;;;7.14;37.86
63339;BME280;70568;51.378;-1.342;2023-08-06T09:49:09;100367.25;;;10.56;35.94
63339;BME280;70568;51.378;-1.342;2023-08-06T09:51:36;100374.10;;;11.04;36.49
63339;BME280;70568;51.378;-1.342;2023-08-06T09:54:05;100374.09;;;11.13;38.18
63339;BME280;70568;51.378;-1.342;2023-08-06T09:56:33;100380.72;;;10.71;38.82
63339;BME280;70568;51.378;-1.342;2023-08-06T09:59:00;100379.78;;;10.64;39.83
63339;BME280;70568;51.378;-1.342;2023-08-06T10:01:27;100374.78;;;10.61;39.11
63339;BME280;70568;51.378;-1.342;2023-08-06T10:03:54;100379.03;;;11.56;37.98
63339;BME280;70568;51.378;-1.342;2023-08-06T10:06:22;100384.61;;;10.88;39.04
63339;BME280;70568;51.378;-1.342;2023-08-06T10:08:50;100375.70;;;10.98;38.39
63339;BME280;70568;51.378;-1.342;2023-08-06T10:11:17;100381.60;;;10.97;37.65
63339;BME280;70568;51.378;-1.342;2023-08-06T10:13:43;100385.33;;;10.72;36.84
63339;BME280;70568;51.378;-1.342;2023-08-06T10:16:11;100387.38;;;11.23;36.08
63339;BME280;70568;51.378;-1.342;2023-08-06T10:18:38;100385.85;;;11.56;37.89
63339;BME280;70568;51.378;-1.342;2023-08-06T10:21:07;100388.49;;;10.88;39.52
63339;BME280;70568;51.378;-1.342;2023-08-06T10:23:35;100379.96;;;11.74;36.96
63339;BME280;70568;51.378;-1.342;2023-08-06T10:26:02;100375.94;;;12.58;33.77
63339;BME280;70568;51.378;-1.342;2023-08-06T10:28:34;100379.47;;;12.16;34.46
63339;BME280;70568;51.378;-1.342;2023-08-06T10:31:00;100379.43;;;10.64;33.94
63339;BME280;70568;51.378;-1.342;2023-08-06T10:33:40;100378.90;;;12.07;35.49
63339;BME280;70568;51.378;-1.342;2023-08-06T10:36:08;100385.22;;;11.12;35.40
63339;BME280;70568;51.378;-1.342;2023-08-06T10:38:44;100384.04;;;10.65;34.98
63339;BME280;70568;51.378;-1.342;2023-08-06T10:41:16;100384.99;;;11.59;39.59
63339;BME280;70568;51.378;-1.342;2023-08-06T10:43:43;100381.75;;;11.13;35.64
63339;BME280;70568;51.378;-1.342;2023-08-06T10:46:10;100375.80;;;11.87;34.19
63339;BME280;70568;51.378;-1.342;2023-08-06T10:48:39;100375.87;;;12.30;33.69
63339;BME280;70568;51.378;-1.342;2023-08-06T10:51:07;100371.77;;;13.84;32.62
63339;BME280;70568;51.378;-1.342;2023-08-06T10:53:35;100372.47;;;11.27;32.54
63339;BME280;70568;51.378;-1.342;2023-08-06T10:56:02;100367.97;;;12.29;31.63
63339;BME280;70568;51.378;-1.342;2023-08-06T10:58:38;100369.44;;;12.69;31.13
63339;BME280;70568;51.378;-1.342;2023-08-06T11:01:05;100361.18;;;12.21;32.33
63339;BME280;70568;51.378;-1.342;2023-08-06T11:03:32;100364.87;;;12.86;33.33
63339;BME280;70568;51.378;-1.342;2023-08-06T11:06:00;100362.75;;;11.52;35.09
63339;BME280;70568;51.378;-1.342;2023-08-06T11:08:28;100360.03;;;12.26;33.91
63339;BME280;70568;51.378;-1.342;2023-08-06T11:10:55;100363.79;;;12.13;35.20
63339;BME280;70568;51.378;-1.342;2023-08-06T11:13:34;100366.37;;;12.87;35.24
63339;BME280;70568;51.378;-1.342;2023-08-06T11:16:00;100365.99;;;10.84;34.29
63339;BME280;70568;51.378;-1.342;2023-08-06T11:18:28;100365.76;;;11.51;32.23
63339;BME280;70568;51.378;-1.342;2023-08-06T11:20:55;100368.14;;;12.19;32.93
63339;BME280;70568;51.378;-1.342;2023-08-06T11:23:21;100367.28;;;12.23;32.39
63339;BME280;70568;51.378;-1.342;2023-08-06T11:25:48;100368.30;;;12.11;33.93
63339;BME280;70568;51.378;-1.342;2023-08-06T11:28:15;100365.77;;;12.40;34.09
63339;BME280;70568;51.378;-1.342;2023-08-06T11:30:41;100371.29;;;11.12;32.36
63339;BME280;70568;51.378;-1.342;2023-08-06T11:33:08;100367.21;;;12.91;31.26
63339;BME280;70568;51.378;-1.342;2023-08-06T11:35:35;100365.96;;;11.85;32.52
63339;BME280;70568;51.378;-1.342;2023-08-06T11:38:02;100371.27;;;12.44;32.16
63339;BME280;70568;51.378;-1.342;2023-08-06T11:40:30;100363.52;;;13.48;31.60
63339;BME280;70568;51.378;-1.342;2023-08-06T11:42:58;100364.12;;;13.51;30.95
63339;BME280;70568;51.378;-1.342;2023-08-06T11:45:25;100367.71;;;10.79;33.13
63339;BME280;70568;51.378;-1.342;2023-08-06T11:47:52;100358.88;;;10.70;33.07
63339;BME280;70568;51.378;-1.342;2023-08-06T11:50:23;100355.84;;;13.46;29.80
63339;BME280;70568;51.378;-1.342;2023-08-06T11:52:54;100354.69;;;13.24;29.85
63339;BME280;70568;51.378;-1.342;2023-08-06T11:55:23;100362.69;;;13.75;31.07
63339;BME280;70568;51.378;-1.342;2023-08-06T11:57:51;100359.88;;;13.43;30.76
63339;BME280;70568;51.378;-1.342;2023-08-06T12:00:18;100355.54;;;13.43;30.62
63339;BME280;70568;51.378;-1.342;2023-08-06T12:02:46;100362.19;;;13.33;30.24
63339;BME280;70568;51.378;-1.342;2023-08-06T12:05:14;100362.76;;;11.75;31.24
63339;BME280;70568;51.378;-1.342;2023-08-06T12:07:44;100361.06;;;11.75;30.66
63339;BME280;70568;51.378;-1.342;2023-08-06T12:10:11;100355.13;;;12.62;29.40
63339;BME280;70568;51.378;-1.342;2023-08-06T12:12:39;100359.04;;;12.85;28.48
63339;BME280;70568;51.378;-1.342;2023-08-06T12:15:07;100353.63;;;10.91;31.33
63339;BME280;70568;51.378;-1.342;2023-08-06T12:17:34;100350.70;;;12.49;29.73
63339;BME280;70568;51.378;-1.342;2023-08-06T12:20:02;100343.94;;;13.99;29.52
63339;BME280;70568;51.378;-1.342;2023-08-06T12:22:28;100347.51;;;14.43;28.95
63339;BME280;70568;51.378;-1.342;2023-08-06T12:24:55;100347.92;;;14.10;29.45
63339;BME280;70568;51.378;-1.342;2023-08-06T12:27:21;100352.30;;;12.79;30.95
63339;BME280;70568;51.378;-1.342;2023-08-06T12:29:48;100348.39;;;14.23;30.67
63339;BME280;70568;51.378;-1.342;2023-08-06T12:32:15;100351.96;;;12.73;32.19
63339;BME280;70568;51.378;-1.342;2023-08-06T12:34:42;100351.39;;;12.47;31.77
63339;BME280;70568;51.378;-1.342;2023-08-06T12:37:09;100352.86;;;12.58;28.41
63339;BME280;70568;51.378;-1.342;2023-08-06T12:39:36;100353.65;;;12.78;28.52
63339;BME280;70568;51.378;-1.342;2023-08-06T12:42:05;100350.82;;;13.68;29.40
63339;BME280;70568;51.378;-1.342;2023-08-06T12:44:32;100352.97;;;13.28;31.01
63339;BME280;70568;51.378;-1.342;2023-08-06T12:46:59;100353.15;;;13.38;29.16